createdAt,value
2019-03-27T00:01:42.887Z,88.17
2019-03-27T00:04:17.460Z,89.22
2019-03-27T00:06:51.885Z,90.62
2019-03-27T00:09:26.351Z,85.97
2019-03-27T00:12:00.765Z,84.97
2019-03-27T00:14:35.403Z,80.77
2019-03-27T00:17:09.814Z,84.42
2019-03-27T00:19:44.328Z,84.65
2019-03-27T00:22:19.028Z,92.20
2019-03-27T00:24:53.517Z,90.30
2019-03-27T00:27:29.090Z,89.15
2019-03-27T00:30:03.611Z,86.47
2019-03-27T00:32:39.287Z,86.53
2019-03-27T00:35:14.558Z,84.97
2019-03-27T00:37:49.129Z,81.60
2019-03-27T00:40:23.767Z,90.55
2019-03-27T00:42:58.478Z,85.90
2019-03-27T00:45:33.104Z,84.17
2019-03-27T00:48:07.750Z,83.97
2019-03-27T00:50:42.236Z,83.10
2019-03-27T00:53:16.930Z,84.25
2019-03-27T00:55:51.775Z,91.28
2019-03-27T00:58:26.190Z,88.35
2019-03-27T01:01:12.076Z,88.50
2019-03-27T01:03:46.940Z,85.53
2019-03-27T01:06:21.382Z,80.45
2019-03-27T01:08:56.267Z,86.17
2019-03-27T01:11:30.981Z,86.12
2019-03-27T01:14:05.705Z,85.32
2019-03-27T01:16:40.311Z,86.90
2019-03-27T01:19:14.711Z,80.60
2019-03-27T01:21:49.251Z,83.27
2019-03-27T01:24:23.823Z,88.00
2019-03-27T01:26:58.354Z,81.22
2019-03-27T01:29:32.878Z,86.55
2019-03-27T01:32:07.576Z,81.80
2019-03-27T01:34:42.105Z,80.45
2019-03-27T01:37:16.735Z,85.03
2019-03-27T01:39:51.280Z,77.20
2019-03-27T01:42:26.093Z,81.67
2019-03-27T01:45:00.714Z,77.32
2019-03-27T01:47:35.401Z,79.72
2019-03-27T01:50:11.138Z,86.80
2019-03-27T01:52:45.482Z,78.10
2019-03-27T01:55:20.062Z,77.25
2019-03-27T01:57:54.594Z,80.53
2019-03-27T02:00:28.950Z,83.75
2019-03-27T02:03:03.645Z,75.50
2019-03-27T02:05:38.056Z,80.85
2019-03-27T02:08:12.592Z,85.32
2019-03-27T02:10:47.356Z,82.50
2019-03-27T02:13:22.249Z,85.28
2019-03-27T02:16:06.879Z,79.60
2019-03-27T02:18:33.481Z,83.15
2019-03-27T02:21:08.392Z,81.97
2019-03-27T02:23:42.842Z,78.97
2019-03-27T02:26:17.571Z,81.65
2019-03-27T02:28:52.399Z,88.03
2019-03-27T02:31:26.833Z,79.95
2019-03-27T02:34:01.370Z,80.40
2019-03-27T02:36:35.803Z,82.82
2019-03-27T02:39:10.276Z,88.07
2019-03-27T02:41:45.160Z,73.65
2019-03-27T02:44:19.766Z,79.07
2019-03-27T02:46:54.590Z,80.87
2019-03-27T02:49:29.235Z,75.35
2019-03-27T02:52:04.030Z,79.53
2019-03-27T02:54:38.786Z,76.33
2019-03-27T02:57:13.385Z,80.72
2019-03-27T02:59:47.929Z,84.17
2019-03-27T03:02:22.700Z,76.70
2019-03-27T03:04:57.361Z,79.03
2019-03-27T03:07:31.963Z,81.95
2019-03-27T03:10:07.234Z,73.70
2019-03-27T03:12:41.855Z,72.42
2019-03-27T03:15:22.897Z,74.10
2019-03-27T03:17:57.297Z,76.30
2019-03-27T03:20:31.999Z,77.40
2019-03-27T03:23:06.505Z,78.10
2019-03-27T03:25:41.419Z,78.30
2019-03-27T03:28:16.082Z,78.28
2019-03-27T03:30:50.753Z,74.00
2019-03-27T03:33:26.415Z,77.12
2019-03-27T03:36:00.956Z,77.30
2019-03-27T03:38:35.410Z,74.40
2019-03-27T03:41:09.946Z,73.35
2019-03-27T03:43:44.603Z,76.12
2019-03-27T03:46:19.166Z,75.20
2019-03-27T03:48:53.891Z,75.25
2019-03-27T03:51:28.512Z,72.25
2019-03-27T03:54:03.828Z,74.97
2019-03-27T03:56:40.974Z,69.32
2019-03-27T03:59:16.857Z,69.20
2019-03-27T04:01:53.380Z,71.82
2019-03-27T04:04:28.228Z,73.78
2019-03-27T04:07:02.730Z,71.50
2019-03-27T04:09:37.288Z,72.53
2019-03-27T04:12:11.843Z,71.72
2019-03-27T04:14:46.592Z,73.57
2019-03-27T04:17:21.151Z,68.52
2019-03-27T04:19:55.544Z,66.40
2019-03-27T04:22:30.046Z,69.45
2019-03-27T04:25:04.544Z,68.15
2019-03-27T04:28:24.839Z,69.82
2019-03-27T04:30:59.315Z,65.67
2019-03-27T04:33:33.677Z,65.60
2019-03-27T04:36:08.457Z,65.17
2019-03-27T04:38:42.950Z,65.17
2019-03-27T04:41:17.537Z,64.27
2019-03-27T04:43:52.090Z,68.12
2019-03-27T04:46:26.739Z,66.87
2019-03-27T04:49:01.306Z,65.70
2019-03-27T04:51:35.898Z,68.22
2019-03-27T04:54:10.324Z,65.20
2019-03-27T04:56:44.677Z,67.20
2019-03-27T04:59:19.235Z,62.67
2019-03-27T05:01:54.206Z,61.10
2019-03-27T05:04:29.557Z,65.52
2019-03-27T05:07:04.004Z,63.30
2019-03-27T05:09:38.696Z,61.15
2019-03-27T05:12:13.197Z,63.60
2019-03-27T05:14:47.633Z,64.53
2019-03-27T05:17:22.082Z,60.40
2019-03-27T05:19:57.619Z,68.22
2019-03-27T05:22:32.300Z,62.23
2019-03-27T05:25:07.714Z,61.88
2019-03-27T05:27:42.255Z,61.55
2019-03-27T05:30:18.101Z,62.40
2019-03-27T05:32:52.661Z,57.23
2019-03-27T05:35:27.177Z,58.65
2019-03-27T05:38:02.039Z,57.27
2019-03-27T05:40:36.495Z,62.80
2019-03-27T05:43:11.152Z,60.28
2019-03-27T05:45:45.951Z,58.85
2019-03-27T05:48:20.661Z,64.62
2019-03-27T05:50:56.502Z,57.53
2019-03-27T05:53:32.118Z,63.63
2019-03-27T05:56:07.164Z,54.85
2019-03-27T05:58:41.729Z,53.17
2019-03-27T06:01:16.396Z,53.75
2019-03-27T06:03:51.883Z,52.75
2019-03-27T06:06:26.752Z,55.23
2019-03-27T06:09:01.240Z,56.80
2019-03-27T06:11:37.401Z,52.90
2019-03-27T06:14:12.093Z,55.65
2019-03-27T06:16:46.777Z,53.38
2019-03-27T06:19:21.268Z,53.70
2019-03-27T06:21:56.780Z,54.13
2019-03-27T06:24:32.674Z,53.02
2019-03-27T06:27:07.213Z,44.30
2019-03-27T06:29:41.933Z,52.98
2019-03-27T06:32:16.826Z,50.95
2019-03-27T06:34:51.423Z,52.35
2019-03-27T06:37:25.928Z,53.83
2019-03-27T06:40:02.163Z,48.52
2019-03-27T06:42:41.317Z,50.08
2019-03-27T06:45:17.776Z,49.80
2019-03-27T06:47:53.015Z,49.63
2019-03-27T06:50:28.000Z,50.10
2019-03-27T06:53:02.831Z,46.95
2019-03-27T06:55:37.810Z,46.75
2019-03-27T06:58:12.557Z,45.60
2019-03-27T07:00:47.164Z,47.95
2019-03-27T07:03:21.941Z,47.05
2019-03-27T07:05:56.910Z,46.37
2019-03-27T07:08:31.442Z,47.55
2019-03-27T07:11:06.517Z,46.25
2019-03-27T07:13:41.310Z,42.38
2019-03-27T07:16:16.085Z,45.17
2019-03-27T07:18:50.829Z,50.28
2019-03-27T07:21:25.534Z,43.78
2019-03-27T07:24:00.423Z,45.65
2019-03-27T07:26:35.196Z,48.50
2019-03-27T07:29:09.965Z,42.60
2019-03-27T07:31:44.570Z,42.67
2019-03-27T07:34:20.191Z,44.15
2019-03-27T07:36:56.315Z,46.85
2019-03-27T07:39:30.856Z,44.73
2019-03-27T07:42:05.345Z,39.65
2019-03-27T07:44:40.715Z,40.35
2019-03-27T07:47:15.576Z,44.88
2019-03-27T07:49:50.358Z,42.03
2019-03-27T07:52:24.973Z,40.43
2019-03-27T07:54:59.679Z,38.67
2019-03-27T07:57:34.346Z,36.70
2019-03-27T08:00:10.203Z,38.75
2019-03-27T08:02:46.221Z,40.35
2019-03-27T08:05:20.716Z,40.52
2019-03-27T08:07:55.575Z,38.25
2019-03-27T08:10:30.393Z,39.20
2019-03-27T08:13:05.121Z,37.42
2019-03-27T08:15:40.973Z,36.35
2019-03-27T08:18:15.807Z,36.33
2019-03-27T08:20:50.293Z,35.73
2019-03-27T08:23:24.652Z,37.80
2019-03-27T08:25:59.315Z,34.38
2019-03-27T08:28:33.834Z,32.70
2019-03-27T08:31:08.588Z,36.53
2019-03-27T08:33:43.662Z,36.13
2019-03-27T08:36:18.345Z,33.75
2019-03-27T08:38:53.153Z,35.58
2019-03-27T08:41:28.219Z,34.83
2019-03-27T08:44:04.135Z,32.08
2019-03-27T08:46:39.903Z,37.95
2019-03-27T08:49:21.661Z,32.50
2019-03-27T08:51:50.534Z,31.52
2019-03-27T08:54:25.228Z,32.93
2019-03-27T08:57:00.306Z,31.55
2019-03-27T08:59:34.930Z,34.38
2019-03-27T09:02:09.642Z,32.42
2019-03-27T09:04:44.376Z,34.30
2019-03-27T09:07:18.933Z,36.08
2019-03-27T09:09:53.514Z,31.20
2019-03-27T09:12:28.142Z,30.50
2019-03-27T09:15:02.868Z,33.80
2019-03-27T09:17:37.650Z,26.82
2019-03-27T09:20:13.006Z,27.58
2019-03-27T09:22:47.669Z,30.68
2019-03-27T09:25:22.212Z,36.80
2019-03-27T09:27:56.812Z,28.62
2019-03-27T09:30:31.527Z,31.85
2019-03-27T09:33:06.365Z,29.37
2019-03-27T09:35:41.521Z,26.50
2019-03-27T09:38:16.654Z,29.00
2019-03-27T09:40:51.471Z,27.65
2019-03-27T09:43:26.489Z,27.77
2019-03-27T09:46:01.008Z,31.40
2019-03-27T09:48:35.469Z,27.13
2019-03-27T09:51:10.143Z,30.32
2019-03-27T09:53:44.981Z,33.65
2019-03-27T09:56:19.813Z,29.90
2019-03-27T09:58:54.542Z,25.10
2019-03-27T10:01:29.214Z,24.55
2019-03-27T10:04:03.708Z,29.82
2019-03-27T10:06:38.367Z,25.68
2019-03-27T10:09:13.678Z,28.77
2019-03-27T10:11:48.217Z,23.67
2019-03-27T10:14:22.791Z,26.23
2019-03-27T10:16:57.582Z,28.50
2019-03-27T10:19:32.455Z,29.15
2019-03-27T10:22:07.354Z,29.40
2019-03-27T10:24:44.452Z,23.02
2019-03-27T10:27:18.744Z,29.20
2019-03-27T10:29:53.374Z,26.82
2019-03-27T10:32:28.290Z,27.07
2019-03-27T10:35:03.549Z,25.77
2019-03-27T10:37:38.386Z,25.37
2019-03-27T10:40:12.935Z,24.50
2019-03-27T10:42:47.675Z,22.75
2019-03-27T10:45:22.329Z,28.62
2019-03-27T10:47:56.905Z,23.65
2019-03-27T10:50:31.571Z,23.77
2019-03-27T10:53:06.254Z,21.70
2019-03-27T10:55:40.775Z,23.73
2019-03-27T10:58:15.502Z,27.80
2019-03-27T11:00:50.217Z,25.50
2019-03-27T11:03:24.561Z,24.77
2019-03-27T11:05:59.085Z,23.65
2019-03-27T11:08:33.613Z,22.95
2019-03-27T11:11:08.190Z,24.05
2019-03-27T11:13:42.741Z,25.52
2019-03-27T11:16:17.436Z,24.95
2019-03-27T11:18:52.229Z,24.15
2019-03-27T11:21:26.958Z,23.60
2019-03-27T11:24:01.751Z,20.43
2019-03-27T11:26:37.532Z,23.77
2019-03-27T11:29:12.552Z,22.70
2019-03-27T11:31:49.105Z,23.80
2019-03-27T11:34:23.812Z,22.73
2019-03-27T11:36:58.299Z,24.57
2019-03-27T11:39:32.986Z,20.48
2019-03-27T11:42:07.973Z,20.77
2019-03-27T11:44:43.183Z,22.90
2019-03-27T11:47:18.027Z,24.25
2019-03-27T11:49:52.761Z,19.07
2019-03-27T11:52:29.663Z,21.55
2019-03-27T11:55:04.158Z,20.17
2019-03-27T11:57:38.845Z,23.98
2019-03-27T12:00:14.495Z,19.52
2019-03-27T12:02:49.254Z,20.48
2019-03-27T12:05:24.380Z,19.37
2019-03-27T12:07:58.862Z,22.50
2019-03-27T12:10:33.679Z,22.00
2019-03-27T12:13:08.686Z,22.48
2019-03-27T12:15:47.499Z,20.75
2019-03-27T12:18:22.274Z,18.92
2019-03-27T12:20:59.788Z,20.30
2019-03-27T12:23:34.734Z,17.60
2019-03-27T12:26:09.470Z,18.95
2019-03-27T12:28:44.104Z,20.92
2019-03-27T12:31:18.625Z,20.40
2019-03-27T12:33:53.345Z,19.85
2019-03-27T12:36:27.982Z,19.62
2019-03-27T12:39:02.663Z,20.23
2019-03-27T12:41:37.712Z,18.85
2019-03-27T12:44:12.484Z,18.67
2019-03-27T12:46:47.030Z,20.10
2019-03-27T12:49:21.365Z,21.20
2019-03-27T12:51:56.052Z,23.95
2019-03-27T12:54:30.621Z,20.72
2019-03-27T12:57:05.151Z,22.25
2019-03-27T12:59:40.076Z,20.90
2019-03-27T13:02:14.802Z,22.35
2019-03-27T13:04:49.398Z,21.12
2019-03-27T13:07:23.963Z,20.57
2019-03-27T13:09:58.499Z,20.20
2019-03-27T13:12:32.990Z,22.40
2019-03-27T13:15:07.959Z,20.45
2019-03-27T13:17:42.538Z,21.82
2019-03-27T13:20:17.596Z,21.25
2019-03-27T13:22:52.277Z,20.27
2019-03-27T13:25:26.723Z,21.80
2019-03-27T13:28:01.265Z,21.02
2019-03-27T13:30:36.012Z,22.42
2019-03-27T13:33:10.561Z,20.80
2019-03-27T13:35:45.074Z,20.45
2019-03-27T13:38:20.006Z,21.80
2019-03-27T13:40:54.799Z,24.87
2019-03-27T13:43:29.341Z,21.02
2019-03-27T13:46:04.093Z,19.37
2019-03-27T13:48:38.824Z,21.50
2019-03-27T13:51:13.380Z,23.02
2019-03-27T13:53:48.282Z,21.57
2019-03-27T13:56:22.960Z,21.35
2019-03-27T13:58:57.599Z,21.50
2019-03-27T14:01:32.186Z,22.05
2019-03-27T14:04:06.926Z,21.30
2019-03-27T14:06:44.567Z,18.10
2019-03-27T14:09:17.854Z,19.30
2019-03-27T14:11:52.450Z,21.15
2019-03-27T14:14:27.016Z,19.32
2019-03-27T14:17:01.679Z,18.98
2019-03-27T14:19:36.312Z,21.60
2019-03-27T14:22:11.026Z,22.50
2019-03-27T14:24:45.433Z,21.77
2019-03-27T14:27:19.923Z,22.85
2019-03-27T14:29:54.649Z,25.05
2019-03-27T14:32:29.528Z,23.30
2019-03-27T14:35:04.264Z,24.92
2019-03-27T14:37:39.265Z,24.80
2019-03-27T14:40:13.925Z,22.85
2019-03-27T14:42:48.759Z,27.22
2019-03-27T14:45:23.354Z,24.47
2019-03-27T14:47:58.190Z,22.32
2019-03-27T14:50:32.787Z,24.40
2019-03-27T14:53:07.400Z,22.05
2019-03-27T14:55:41.912Z,25.90
2019-03-27T14:58:16.575Z,23.30
2019-03-27T15:00:51.273Z,23.25
2019-03-27T15:03:25.670Z,23.55
2019-03-27T15:06:00.333Z,24.82
2019-03-27T15:08:35.096Z,22.45
2019-03-27T15:11:09.912Z,24.80
2019-03-27T15:13:44.457Z,27.13
2019-03-27T15:16:19.129Z,30.92
2019-03-27T15:18:53.405Z,27.75
2019-03-27T15:21:27.683Z,28.52
2019-03-27T15:24:02.301Z,36.60
2019-03-27T15:26:36.721Z,32.05
2019-03-27T15:29:11.381Z,31.02
2019-03-27T15:31:46.031Z,27.15
2019-03-27T15:34:20.798Z,31.87
2019-03-27T15:36:55.202Z,29.63
2019-03-27T15:39:30.118Z,29.35
2019-03-27T15:42:04.761Z,32.73
2019-03-27T15:44:39.226Z,44.77
2019-03-27T15:47:13.687Z,39.50
2019-03-27T15:49:48.047Z,37.08
2019-03-27T15:52:35.426Z,32.10
2019-03-27T15:54:58.753Z,32.90
2019-03-27T15:57:33.131Z,35.85
2019-03-27T16:00:07.898Z,33.53
2019-03-27T16:02:42.703Z,38.55
2019-03-27T16:05:17.168Z,38.50
2019-03-27T16:07:52.077Z,37.73
2019-03-27T16:10:26.807Z,33.00
2019-03-27T16:13:01.461Z,30.35
2019-03-27T16:15:37.182Z,35.90
2019-03-27T16:18:11.896Z,34.30
2019-03-27T16:20:46.567Z,40.00
2019-03-27T16:23:21.222Z,34.90
2019-03-27T16:25:56.016Z,33.92
2019-03-27T16:28:30.456Z,40.25
2019-03-27T16:31:05.264Z,42.93
2019-03-27T16:33:39.900Z,42.85
2019-03-27T16:36:14.390Z,35.65
2019-03-27T16:38:48.820Z,33.40
2019-03-27T16:41:23.451Z,49.42
2019-03-27T16:43:58.063Z,53.50
2019-03-27T16:46:32.978Z,37.30
2019-03-27T16:49:07.975Z,38.88
2019-03-27T16:51:42.469Z,44.00
2019-03-27T16:54:16.965Z,39.95
2019-03-27T16:56:51.462Z,39.38
2019-03-27T16:59:26.010Z,39.20
2019-03-27T17:02:01.204Z,39.10
2019-03-27T17:04:35.578Z,39.42
2019-03-27T17:07:10.146Z,41.28
2019-03-27T17:09:44.560Z,46.40
2019-03-27T17:12:19.235Z,38.75
2019-03-27T17:14:53.846Z,40.80
2019-03-27T17:17:28.347Z,42.45
2019-03-27T17:20:02.966Z,47.65
2019-03-27T17:22:37.441Z,47.00
2019-03-27T17:25:12.152Z,41.00
2019-03-27T17:27:46.681Z,51.77
2019-03-27T17:30:21.691Z,43.73
2019-03-27T17:32:56.310Z,44.73
2019-03-27T17:35:30.774Z,44.53
2019-03-27T17:38:05.194Z,45.25
2019-03-27T17:40:39.787Z,48.17
2019-03-27T17:43:14.184Z,46.28
2019-03-27T17:45:48.613Z,46.10
2019-03-27T17:48:22.999Z,52.05
2019-03-27T17:50:57.669Z,52.78
2019-03-27T17:53:32.345Z,51.63
2019-03-27T17:56:07.078Z,50.90
2019-03-27T17:58:42.190Z,50.73
2019-03-27T18:01:16.528Z,52.00
2019-03-27T18:03:51.038Z,47.88
2019-03-27T18:06:25.340Z,54.35
2019-03-27T18:08:59.995Z,51.35
2019-03-27T18:11:34.430Z,53.05
2019-03-27T18:14:08.962Z,53.02
2019-03-27T18:16:44.251Z,53.85
2019-03-27T18:19:18.699Z,51.63
2019-03-27T18:22:06.690Z,49.50
2019-03-27T18:24:29.515Z,53.13
2019-03-27T18:27:04.274Z,54.48
2019-03-27T18:29:39.057Z,55.35
2019-03-27T18:32:14.186Z,53.63
2019-03-27T18:34:49.501Z,53.83
2019-03-27T18:37:24.005Z,55.28
2019-03-27T18:39:58.521Z,57.90
2019-03-27T18:42:33.289Z,59.03
2019-03-27T18:45:08.067Z,57.62
2019-03-27T18:47:42.731Z,56.35
2019-03-27T18:50:17.271Z,56.88
2019-03-27T18:52:51.987Z,58.63
2019-03-27T18:55:27.195Z,56.58
2019-03-27T18:58:01.799Z,57.90
2019-03-27T19:00:36.483Z,61.98
2019-03-27T19:03:11.055Z,58.65
2019-03-27T19:05:45.532Z,64.20
2019-03-27T19:08:20.009Z,59.50
2019-03-27T19:10:55.518Z,60.35
2019-03-27T19:13:30.016Z,63.25
2019-03-27T19:16:04.372Z,65.60
2019-03-27T19:18:38.769Z,66.40
2019-03-27T19:21:13.398Z,66.87
2019-03-27T19:23:47.936Z,64.72
2019-03-27T19:26:22.485Z,66.90
2019-03-27T19:28:56.771Z,66.02
2019-03-27T19:31:31.326Z,68.55
2019-03-27T19:34:06.004Z,68.57
2019-03-27T19:36:40.666Z,69.00
2019-03-27T19:39:15.243Z,67.70
2019-03-27T19:41:49.914Z,67.90
2019-03-27T19:44:24.420Z,65.35
2019-03-27T19:47:00.687Z,70.00
2019-03-27T19:49:35.029Z,67.27
2019-03-27T19:52:09.611Z,67.72
2019-03-27T19:54:44.160Z,67.37
2019-03-27T19:57:18.665Z,64.53
2019-03-27T19:59:53.957Z,71.42
2019-03-27T20:02:28.475Z,70.32
2019-03-27T20:05:03.020Z,70.17
2019-03-27T20:07:37.898Z,71.00
2019-03-27T20:10:13.172Z,72.32
2019-03-27T20:12:47.620Z,73.00
2019-03-27T20:15:22.293Z,67.95
2019-03-27T20:17:56.901Z,70.35
2019-03-27T20:20:31.630Z,72.20
2019-03-27T20:23:14.711Z,68.57
2019-03-27T20:25:42.140Z,69.55
2019-03-27T20:28:16.512Z,70.10
2019-03-27T20:30:51.170Z,73.55
2019-03-27T20:33:25.635Z,71.95
2019-03-27T20:35:59.895Z,74.87
2019-03-27T20:38:34.458Z,68.25
2019-03-27T20:41:08.735Z,73.05
2019-03-27T20:43:45.676Z,72.27
2019-03-27T20:46:25.448Z,73.12
2019-03-27T20:48:56.376Z,75.92
2019-03-27T20:51:30.813Z,74.60
2019-03-27T20:54:06.010Z,71.47
2019-03-27T20:56:40.604Z,70.47
2019-03-27T20:59:18.239Z,70.67
2019-03-27T21:01:51.829Z,69.75
2019-03-27T21:04:26.256Z,73.00
2019-03-27T21:07:00.857Z,74.32
2019-03-27T21:09:35.264Z,73.52
2019-03-27T21:12:09.919Z,76.28
2019-03-27T21:14:44.245Z,71.28
2019-03-27T21:17:18.657Z,71.50
2019-03-27T21:19:53.242Z,73.17
2019-03-27T21:22:27.948Z,73.92
2019-03-27T21:25:09.007Z,70.08
2019-03-27T21:27:39.238Z,71.72
2019-03-27T21:30:14.206Z,73.78
2019-03-27T21:32:48.646Z,70.37
2019-03-27T21:35:23.118Z,72.90
2019-03-27T21:37:57.755Z,74.07
2019-03-27T21:40:32.148Z,79.10
2019-03-27T21:43:06.635Z,73.50
2019-03-27T21:45:41.423Z,78.17
2019-03-27T21:48:15.804Z,70.28
2019-03-27T21:50:50.575Z,74.17
2019-03-27T21:53:25.299Z,72.78
2019-03-27T21:56:00.509Z,71.90
2019-03-27T21:58:34.870Z,77.55
2019-03-27T22:01:09.800Z,73.85
2019-03-27T22:03:44.258Z,73.52
2019-03-27T22:06:18.971Z,73.35
2019-03-27T22:08:53.511Z,69.30
2019-03-27T22:11:28.873Z,72.80
2019-03-27T22:14:03.329Z,76.40
2019-03-27T22:16:37.896Z,72.75
2019-03-27T22:19:12.309Z,74.22
2019-03-27T22:21:46.734Z,72.65
2019-03-27T22:24:21.317Z,81.53
2019-03-27T22:26:54.809Z,76.20
2019-03-27T22:29:29.430Z,74.00
2019-03-27T22:32:03.820Z,74.47
2019-03-27T22:34:38.454Z,72.27
2019-03-27T22:37:12.977Z,75.90
2019-03-27T22:39:48.044Z,76.12
2019-03-27T22:42:22.819Z,74.17
2019-03-27T22:44:57.667Z,69.10
2019-03-27T22:47:32.377Z,71.10
2019-03-27T22:50:08.398Z,71.77
2019-03-27T22:52:43.231Z,75.40
2019-03-27T22:55:17.926Z,73.20
2019-03-27T22:57:52.518Z,70.17
2019-03-27T23:00:47.317Z,73.80
2019-03-27T23:03:23.444Z,72.85
2019-03-27T23:05:58.234Z,73.42
2019-03-27T23:08:32.698Z,71.10
2019-03-27T23:11:07.440Z,71.57
2019-03-27T23:13:42.127Z,72.47
2019-03-27T23:16:16.973Z,72.67
2019-03-27T23:18:51.595Z,77.20
2019-03-27T23:21:25.998Z,70.35
2019-03-27T23:24:00.717Z,72.40
2019-03-27T23:26:35.059Z,74.42
2019-03-27T23:29:09.770Z,77.42
2019-03-27T23:31:44.149Z,71.40
2019-03-27T23:34:19.805Z,72.22
2019-03-27T23:36:54.155Z,71.22
2019-03-27T23:39:28.685Z,68.97
2019-03-27T23:42:03.371Z,68.87
2019-03-27T23:44:37.908Z,73.07
2019-03-27T23:47:12.558Z,73.60
2019-03-27T23:49:46.985Z,74.10
2019-03-27T23:52:21.373Z,72.97
2019-03-27T23:54:55.897Z,70.37
2019-03-27T23:57:30.425Z,71.92
